Jerome, PA (15937)

12:49 AM EST on February 07, 2016 (GMT -0500)
School Ave. | | Change Station
CLOSE
Current Station
Personal Weather Station
Location: Jerome, PA
Elevation: 1880 ft
Nearby Weather Stations

Elev 1880 ft 40.21 °N, 78.99 °W | Updated 4 minutes ago

Clear
Clear
31.0 °F
Feels Like 31 °F
N
0.0
Wind Variable Wind from ENE
Gusts 2.0 mph

Today
High -- | Low -- °F
--% Chance of Precip.
Yesterday
High -- | Low -- °F
Precip. -- in
Pressure 30.20 in
Visibility 10.0 miles
Clouds Clear
Windchill 31 °F
Dew Point 18 °F
Humidity 58%
Rainfall 0.00 in
Snow Depth Not available.
7:19 AM 5:41 PM
Waning Crescent, 3% visible
METAR KJST 070454Z AUTO 25006KT 10SM CLR M02/M11 A3013 RMK AO2 SLP227 T10171111 400391056
Pressure 30.20 in
Visibility 10.0 miles
Clouds Clear
Windchill 31 °F
Dew Point 18 °F
Humidity 58%
Rainfall 0.00 in
Snow Depth Not available.
7:19 AM 5:41 PM
Waning Crescent, 3% visible
METAR KJST 070454Z AUTO 25006KT 10SM CLR M02/M11 A3013 RMK AO2 SLP227 T10171111 400391056

10-Day Weather Forecast

Almanac

Astronomy

Feb. 07, 2016 Rise Set
Actual Time
Civil Twilight
Nautical Twilight
Astronomical Twilight
Moon
Length of Visible Light
Length of Day
Tomorrow will be .
, % of the Moon is Illuminated

Today's Extremes

State Highs State Lows

Community

WunderPhotos

Upload Photos

1,891,167 photos uploaded!

WunderBlog® & News

Nearby

Air Quality

  Air Quality AQ Index Pollutant
Not available.

Snow Depth

Station Depth Elevation

Earthquake Activity

City Distance Mag. Time & Date
Minimum magnitude displayed is 2.5.

Coastal Water Temperatures

Place Temperature

Stations

Nearby Weather Stations

Station Location Temp. Windchill Dew Point Humidity Wind Precip. Elev Updated Type
                   

Watches & Warnings

There are currently no watches in effect.